Time;durP1;ratioP1;P1;durP2;ratioP2;P2;SDS_P1;SDS_P2;PMS_P1;PMS_P2;Temp;Humidity;BMP_temperature;BMP_pressure;BME280_temperature;BME280_humidity;BME280_pressure;Samples;Min_cycle;Max_cycle;Signal;HPM_P1;HPM_P2
2023/01/29 00:01:52;;;;;;;50.53;29.55;;;2.70;53.50;;;;;;5038544;28;20053;-49
2023/01/29 00:04:19;;;;;;;53.13;28.55;;;2.70;53.50;;;;;;5042700;28;20429;-48
2023/01/29 00:06:47;;;;;;;55.03;30.00;;;2.70;53.50;;;;;;5039413;28;20107;-47
2023/01/29 00:09:14;;;;;;;54.97;31.13;;;2.60;53.50;;;;;;5039912;28;20125;-49
2023/01/29 00:11:41;;;;;;;51.10;29.75;;;2.60;53.60;;;;;;5040907;28;20049;-45
2023/01/29 00:14:09;;;;;;;46.20;27.23;;;2.60;53.60;;;;;;5038982;28;20057;-49
2023/01/29 00:16:36;;;;;;;47.92;25.80;;;2.60;53.70;;;;;;5043314;28;20052;-49
2023/01/29 00:19:05;;;;;;;43.75;25.33;;;2.60;53.70;;;;;;5042455;28;20524;-46
2023/01/29 00:21:32;;;;;;;46.15;26.92;;;2.50;53.70;;;;;;5040958;28;20057;-47
2023/01/29 00:24:00;;;;;;;45.83;26.98;;;2.50;53.80;;;;;;5037540;28;20053;-50
2023/01/29 00:26:28;;;;;;;44.95;26.38;;;2.50;53.80;;;;;;5038499;28;20045;-48
2023/01/29 00:28:59;;;;;;;45.88;26.65;;;2.50;53.90;;;;;;5042342;28;20061;-50
2023/01/29 00:31:26;;;;;;;46.90;27.65;;;2.50;53.90;;;;;;5041665;28;20053;-47
2023/01/29 00:33:53;;;;;;;46.05;25.95;;;2.50;53.90;;;;;;5041903;28;20053;-46
2023/01/29 00:36:23;;;;;;;43.72;25.45;;;2.50;53.90;;;;;;5040498;28;20049;-47
2023/01/29 00:38:57;;;;;;;46.08;26.98;;;2.50;53.90;;;;;;5033530;28;20053;-49
2023/01/29 00:47:29;;;;;;;53.88;28.00;;;2.50;54.00;;;;;;4966957;28;20070;-46
2023/01/29 00:49:57;;;;;;;46.30;28.05;;;2.50;54.50;;;;;;5016499;28;20055;-49
2023/01/29 00:52:25;;;;;;;48.78;27.15;;;2.50;54.00;;;;;;5035977;28;20496;-46
2023/01/29 00:54:54;;;;;;;45.97;26.10;;;2.50;54.10;;;;;;5038721;28;20067;-46
2023/01/29 00:57:21;;;;;;;47.42;26.92;;;2.50;54.00;;;;;;5042821;28;20055;-48
2023/01/29 00:59:48;;;;;;;47.50;27.23;;;2.50;54.00;;;;;;5041322;28;20524;-43
2023/01/29 01:05:02;;;;;;;50.20;29.25;;;2.50;54.00;;;;;;5046679;28;20048;-46
2023/01/29 01:07:30;;;;;;;52.75;29.88;;;2.40;53.90;;;;;;5038563;28;20049;-49
2023/01/29 01:12:42;;;;;;;46.80;27.48;;;2.40;53.90;;;;;;5046435;28;20059;-48
2023/01/29 01:15:10;;;;;;;53.10;28.92;;;2.40;53.90;;;;;;5041795;28;20056;-48
2023/01/29 01:17:37;;;;;;;52.20;28.95;;;2.30;53.90;;;;;;5041546;28;20056;-47
2023/01/29 01:20:06;;;;;;;56.95;31.60;;;2.30;54.00;;;;;;5037221;28;20053;-49
2023/01/29 01:22:35;;;;;;;54.28;31.02;;;2.30;54.00;;;;;;5042085;28;20087;-48
2023/01/29 01:25:03;;;;;;;56.28;32.63;;;2.30;54.10;;;;;;5039489;28;20057;-46
2023/01/29 01:27:30;;;;;;;61.45;32.53;;;2.30;54.00;;;;;;5034698;28;20065;-47
2023/01/29 01:29:58;;;;;;;60.65;33.20;;;2.30;54.00;;;;;;5041022;28;20056;-49
2023/01/29 01:32:25;;;;;;;56.30;30.42;;;2.20;53.90;;;;;;5041929;28;20052;-47
2023/01/29 01:34:52;;;;;;;56.58;32.63;;;2.20;53.90;;;;;;5037101;28;20057;-47
2023/01/29 01:37:20;;;;;;;67.78;34.67;;;2.20;54.00;;;;;;5039657;28;20057;-45
2023/01/29 01:39:49;;;;;;;63.80;34.38;;;2.20;54.00;;;;;;5039909;28;20049;-48
2023/01/29 01:42:16;;;;;;;62.83;34.38;;;2.20;54.10;;;;;;5041357;28;20045;-50
2023/01/29 01:44:57;;;;;;;62.10;33.30;;;2.10;54.10;;;;;;5039033;28;20499;-50
2023/01/29 01:47:30;;;;;;;61.45;32.90;;;2.10;54.10;;;;;;5041451;28;20049;-47
2023/01/29 01:50:01;;;;;;;67.10;36.33;;;2.10;54.20;;;;;;5035972;28;20057;-45
2023/01/29 01:52:31;;;;;;;67.78;36.20;;;2.10;54.20;;;;;;5039321;28;20053;-45
2023/01/29 01:55:00;;;;;;;61.47;35.22;;;2.10;54.20;;;;;;5039122;28;20053;-46
2023/01/29 01:57:30;;;;;;;59.85;34.33;;;2.00;54.70;;;;;;5041075;28;20053;-47
2023/01/29 02:00:09;;;;;;;62.25;33.53;;;2.00;54.30;;;;;;5039866;28;20063;-48
2023/01/29 02:10:58;;;;;;;64.28;34.97;;;2.00;54.20;;;;;;5040313;28;21426;-51
2023/01/29 02:13:26;;;;;;;61.33;34.53;;;2.00;54.20;;;;;;5040505;28;20053;-52
2023/01/29 02:15:53;;;;;;;60.97;32.58;;;1.90;54.30;;;;;;5040133;28;20060;-53
2023/01/29 02:18:21;;;;;;;62.30;32.50;;;1.90;54.40;;;;;;5036756;28;20060;-51
2023/01/29 02:21:02;;;;;;;60.22;32.97;;;1.90;54.40;;;;;;5036072;28;20052;-52
2023/01/29 02:24:14;;;;;;;62.28;33.00;;;1.90;54.50;;;;;;5040852;28;20076;-51
2023/01/29 02:26:56;;;;;;;65.40;34.42;;;1.90;54.60;;;;;;5003583;28;20056;-51
2023/01/29 02:29:32;;;;;;;64.03;32.50;;;1.90;54.50;;;;;;5034319;28;20060;-52
2023/01/29 02:32:09;;;;;;;59.78;30.73;;;1.90;54.50;;;;;;5036284;28;20045;-48
2023/01/29 02:37:35;;;;;;;67.30;33.60;;;1.90;54.50;;;;;;5039335;28;20060;-49
2023/01/29 02:40:12;;;;;;;63.00;32.33;;;1.90;54.50;;;;;;5034036;28;20053;-50
2023/01/29 02:42:46;;;;;;;62.95;33.22;;;1.80;54.40;;;;;;5039831;28;20437;-52
2023/01/29 02:45:20;;;;;;;63.85;33.65;;;1.80;54.40;;;;;;5039146;28;20858;-52
2023/01/29 02:47:54;;;;;;;60.35;33.35;;;1.80;54.40;;;;;;5040082;28;20060;-52
2023/01/29 02:50:31;;;;;;;59.08;32.00;;;1.80;54.40;;;;;;5036626;28;20053;-49
2023/01/29 02:53:04;;;;;;;59.28;30.00;;;1.80;54.40;;;;;;5038515;28;20379;-48
2023/01/29 02:55:36;;;;;;;56.67;31.85;;;1.80;54.50;;;;;;5038737;28;20048;-52
2023/01/29 02:58:11;;;;;;;59.60;31.67;;;1.80;54.50;;;;;;5039079;28;20056;-50
2023/01/29 03:00:44;;;;;;;60.83;32.13;;;1.80;54.50;;;;;;5037810;28;20524;-51
2023/01/29 03:03:17;;;;;;;58.30;31.92;;;1.80;54.50;;;;;;5035221;28;20426;-51
2023/01/29 03:05:52;;;;;;;64.55;34.20;;;1.80;54.50;;;;;;5039729;28;20049;-51
2023/01/29 03:08:35;;;;;;;56.85;31.08;;;1.80;54.50;;;;;;5040970;28;20060;-50
2023/01/29 03:11:05;;;;;;;59.13;32.63;;;1.80;54.50;;;;;;5038591;28;20044;-48
2023/01/29 03:13:40;;;;;;;65.55;35.20;;;1.80;54.50;;;;;;5038735;28;20520;-47
2023/01/29 03:16:17;;;;;;;62.13;33.83;;;1.80;54.60;;;;;;5038843;28;20061;-50
2023/01/29 03:18:51;;;;;;;66.10;35.33;;;1.80;54.60;;;;;;5035125;28;20049;-46
2023/01/29 03:32:37;;;;;;;72.57;35.47;;;1.70;54.50;;;;;;5041891;28;20075;-48
2023/01/29 03:35:08;;;;;;;69.00;36.90;;;1.70;54.50;;;;;;5043781;28;20493;-50
2023/01/29 03:37:40;;;;;;;72.45;37.90;;;1.70;54.40;;;;;;5042635;28;20064;-49
2023/01/29 03:40:09;;;;;;;74.65;37.95;;;1.70;54.50;;;;;;5042286;28;20469;-50
2023/01/29 03:43:00;;;;;;;79.07;39.15;;;1.70;54.50;;;;;;5042375;28;20052;-48
2023/01/29 03:45:34;;;;;;;64.22;36.63;;;1.60;54.40;;;;;;5038058;28;20049;-52
2023/01/29 03:48:07;;;;;;;72.65;37.75;;;1.60;54.40;;;;;;5043324;28;20065;-49
2023/01/29 03:50:41;;;;;;;78.13;40.55;;;1.60;54.40;;;;;;5041819;28;20052;-52
2023/01/29 03:53:17;;;;;;;72.30;37.65;;;1.60;54.50;;;;;;5042603;28;20057;-51
2023/01/29 03:55:54;;;;;;;70.82;38.40;;;1.60;54.50;;;;;;5041313;28;20428;-48
2023/01/29 03:58:28;;;;;;;68.20;35.92;;;1.60;54.60;;;;;;5039738;28;20492;-52
2023/01/29 04:00:59;;;;;;;66.50;35.53;;;1.60;54.60;;;;;;5036726;28;20064;-49
2023/01/29 04:03:33;;;;;;;63.58;33.97;;;1.60;54.50;;;;;;5043349;28;20060;-48
2023/01/29 04:06:08;;;;;;;67.13;35.70;;;1.50;54.40;;;;;;5041383;28;20053;-50
2023/01/29 04:08:44;;;;;;;64.45;33.45;;;1.50;54.30;;;;;;5040963;28;20059;-49
2023/01/29 04:11:15;;;;;;;63.22;34.25;;;1.50;54.30;;;;;;5038880;28;20095;-47
2023/01/29 04:13:45;;;;;;;59.83;32.50;;;1.50;54.30;;;;;;5039200;28;20040;-52
2023/01/29 04:16:17;;;;;;;60.17;32.80;;;1.50;54.40;;;;;;5036911;28;20061;-49
2023/01/29 04:18:46;;;;;;;62.00;32.63;;;1.40;54.40;;;;;;5042309;28;20060;-52
2023/01/29 04:21:15;;;;;;;59.45;32.55;;;1.40;54.50;;;;;;5041537;28;20389;-49
2023/01/29 04:23:44;;;;;;;62.03;34.13;;;1.50;54.60;;;;;;5041459;28;20055;-51
2023/01/29 04:26:42;;;;;;;64.85;33.80;;;1.50;54.60;;;;;;5036248;28;20064;-47
2023/01/29 04:29:21;;;;;;;65.95;34.72;;;1.50;54.60;;;;;;5033211;28;20058;-51
2023/01/29 04:32:00;;;;;;;69.50;34.97;;;1.50;54.50;;;;;;5036386;28;20052;-52
2023/01/29 04:34:36;;;;;;;67.30;36.15;;;1.50;54.50;;;;;;5030762;28;20528;-47
2023/01/29 04:37:12;;;;;;;71.75;37.05;;;1.50;54.50;;;;;;5030164;28;20413;-48
2023/01/29 04:39:47;;;;;;;76.88;40.42;;;1.50;54.60;;;;;;5036958;28;20049;-50
2023/01/29 04:42:22;;;;;;;78.97;40.67;;;1.50;54.60;;;;;;5039062;28;20477;-49
2023/01/29 04:44:59;;;;;;;68.63;37.05;;;1.50;54.70;;;;;;5042017;28;20390;-51
2023/01/29 04:47:34;;;;;;;71.10;37.47;;;1.40;54.70;;;;;;5042065;28;20053;-52
2023/01/29 04:50:13;;;;;;;76.72;38.17;;;1.40;54.80;;;;;;5039947;28;20053;-50
2023/01/29 04:52:48;;;;;;;69.40;36.75;;;1.50;54.90;;;;;;5037388;28;20493;-47
2023/01/29 04:55:20;;;;;;;62.85;33.60;;;1.50;54.90;;;;;;5035547;28;20064;-51
2023/01/29 04:57:53;;;;;;;65.68;34.15;;;1.50;55.00;;;;;;5039957;28;20048;-50
2023/01/29 05:00:24;;;;;;;60.85;33.33;;;1.50;55.00;;;;;;5035960;28;20630;-48
2023/01/29 05:02:53;;;;;;;71.03;36.17;;;1.50;55.00;;;;;;5040563;28;20090;-49
2023/01/29 05:05:22;;;;;;;66.95;35.15;;;1.50;54.90;;;;;;5041215;28;20045;-49
2023/01/29 05:07:50;;;;;;;66.63;35.60;;;1.50;54.90;;;;;;5035882;28;20371;-49
2023/01/29 05:10:20;;;;;;;72.30;38.53;;;1.50;54.80;;;;;;5040969;28;20056;-52
2023/01/29 05:12:52;;;;;;;65.13;34.60;;;1.50;54.70;;;;;;5041662;28;20049;-49
2023/01/29 05:15:24;;;;;;;72.78;37.65;;;1.50;54.70;;;;;;5037852;28;20481;-51
2023/01/29 05:17:52;;;;;;;80.38;40.42;;;1.50;54.80;;;;;;5026517;28;20079;-51
2023/01/29 05:20:21;;;;;;;73.15;38.72;;;1.50;54.80;;;;;;5041359;28;20049;-51
2023/01/29 05:22:49;;;;;;;78.70;39.80;;;1.50;54.70;;;;;;5041795;28;20504;-52
2023/01/29 05:25:23;;;;;;;68.57;37.47;;;1.50;54.80;;;;;;5039378;28;20056;-52
2023/01/29 05:28:03;;;;;;;68.57;36.45;;;1.50;54.90;;;;;;5041049;28;20064;-49
2023/01/29 05:30:31;;;;;;;72.78;37.03;;;1.50;54.90;;;;;;5037287;28;20049;-52
2023/01/29 05:32:58;;;;;;;64.32;34.55;;;1.50;55.00;;;;;;5039107;28;20090;-51
2023/01/29 05:35:27;;;;;;;62.45;33.13;;;1.50;55.00;;;;;;5040777;28;20045;-49
2023/01/29 05:37:55;;;;;;;68.13;36.03;;;1.60;55.10;;;;;;5039955;28;20048;-47
2023/01/29 05:40:23;;;;;;;175.38;65.95;;;1.60;55.10;;;;;;5037119;28;20056;-48
2023/01/29 05:42:50;;;;;;;243.63;94.50;;;1.50;55.00;;;;;;5035589;28;20079;-51
2023/01/29 05:45:18;;;;;;;132.55;57.53;;;1.60;55.10;;;;;;5040320;28;20052;-52
2023/01/29 05:47:46;;;;;;;80.60;38.10;;;1.60;55.00;;;;;;5040953;28;20989;-51
2023/01/29 05:50:15;;;;;;;67.07;34.80;;;1.60;55.10;;;;;;5039086;28;20060;-51
2023/01/29 05:52:43;;;;;;;67.00;35.22;;;1.60;55.00;;;;;;5041023;28;20049;-52
2023/01/29 05:55:11;;;;;;;70.72;35.70;;;1.60;55.00;;;;;;5040169;28;20412;-49
2023/01/29 05:57:40;;;;;;;67.07;35.78;;;1.60;54.90;;;;;;5039792;28;20057;-48
2023/01/29 06:00:08;;;;;;;73.78;38.70;;;1.60;54.90;;;;;;5034655;28;20052;-51
2023/01/29 06:02:35;;;;;;;75.35;39.45;;;1.60;54.90;;;;;;5039420;28;20053;-52
2023/01/29 06:05:03;;;;;;;78.32;38.28;;;1.70;54.90;;;;;;5038397;28;20061;-49
2023/01/29 06:07:30;;;;;;;76.53;40.42;;;1.60;54.90;;;;;;5040636;28;20064;-53
2023/01/29 06:09:59;;;;;;;73.10;38.45;;;1.60;55.00;;;;;;5036916;28;20061;-54
2023/01/29 06:12:27;;;;;;;77.72;41.03;;;1.60;55.10;;;;;;5037544;28;20072;-52
2023/01/29 06:14:54;;;;;;;80.07;41.60;;;1.70;55.20;;;;;;5035503;28;20412;-50
2023/01/29 06:17:21;;;;;;;78.38;40.40;;;1.70;55.20;;;;;;5038456;28;20056;-50
2023/01/29 06:19:48;;;;;;;81.10;40.58;;;1.70;55.30;;;;;;5038702;28;20063;-53
2023/01/29 06:22:16;;;;;;;77.97;39.70;;;1.70;55.30;;;;;;5037713;28;20501;-47
2023/01/29 06:24:44;;;;;;;79.38;41.67;;;1.70;55.30;;;;;;5038498;28;20051;-50
2023/01/29 06:27:13;;;;;;;75.65;40.35;;;1.70;55.40;;;;;;5040770;28;20083;-53
2023/01/29 06:29:40;;;;;;;70.25;37.10;;;1.70;55.50;;;;;;5037999;28;20049;-50
2023/01/29 06:32:07;;;;;;;78.15;38.92;;;1.70;55.50;;;;;;5036033;28;20520;-52
2023/01/29 06:34:34;;;;;;;71.07;37.38;;;1.80;55.60;;;;;;5040863;28;20049;-47
2023/01/29 06:37:02;;;;;;;70.90;37.65;;;1.80;55.60;;;;;;5042536;28;20381;-48
2023/01/29 06:39:29;;;;;;;70.95;36.10;;;1.80;55.60;;;;;;5040710;28;20076;-51
2023/01/29 06:41:56;;;;;;;63.58;35.45;;;1.80;55.60;;;;;;5038798;28;20055;-49
2023/01/29 06:44:25;;;;;;;70.30;36.05;;;1.80;55.70;;;;;;5039238;28;20493;-51
2023/01/29 06:46:52;;;;;;;67.72;34.67;;;1.90;55.70;;;;;;5038022;28;20053;-49
2023/01/29 06:49:19;;;;;;;65.93;34.70;;;1.90;55.70;;;;;;5037546;28;20808;-52
2023/01/29 06:51:46;;;;;;;66.55;35.65;;;1.90;55.70;;;;;;5039120;28;20064;-49
2023/01/29 06:54:14;;;;;;;65.55;34.75;;;2.00;55.70;;;;;;5038482;28;20060;-52
2023/01/29 06:56:41;;;;;;;65.38;35.47;;;1.90;55.70;;;;;;5039437;28;20053;-52
2023/01/29 06:59:08;;;;;;;67.45;35.72;;;1.90;55.70;;;;;;5039998;28;20516;-53
2023/01/29 07:01:41;;;;;;;67.25;35.60;;;2.00;55.70;;;;;;5038613;28;20060;-52
2023/01/29 07:04:08;;;;;;;70.63;37.10;;;2.00;55.70;;;;;;5040417;28;20072;-49
2023/01/29 07:06:35;;;;;;;69.75;37.60;;;2.00;55.70;;;;;;5042884;28;20061;-48
2023/01/29 07:09:03;;;;;;;65.82;35.65;;;2.00;55.70;;;;;;5042115;28;20056;-50
2023/01/29 07:11:31;;;;;;;70.30;36.38;;;2.00;55.70;;;;;;5041760;28;20044;-47
2023/01/29 07:13:58;;;;;;;64.70;35.60;;;2.10;55.70;;;;;;5041253;28;20044;-52
2023/01/29 07:16:25;;;;;;;67.72;36.03;;;2.10;55.70;;;;;;5042763;28;20053;-53
2023/01/29 07:18:54;;;;;;;69.13;36.05;;;2.10;55.70;;;;;;5041355;28;20061;-51
2023/01/29 07:21:21;;;;;;;67.05;35.83;;;2.10;55.70;;;;;;5044495;28;20056;-52
2023/01/29 07:23:48;;;;;;;65.93;35.20;;;2.10;55.60;;;;;;5042553;28;20064;-49
2023/01/29 07:26:16;;;;;;;66.63;35.95;;;2.10;55.60;;;;;;5042363;28;20053;-45
2023/01/29 07:28:43;;;;;;;65.13;35.25;;;2.20;55.70;;;;;;5043796;28;20050;-44
2023/01/29 07:31:13;;;;;;;66.38;36.10;;;2.20;55.70;;;;;;5043228;28;20049;-49
2023/01/29 07:33:42;;;;;;;64.38;33.13;;;2.20;55.70;;;;;;5040108;28;20053;-48
2023/01/29 07:36:11;;;;;;;66.47;36.63;;;2.20;55.60;;;;;;5038546;28;20398;-48
2023/01/29 07:38:38;;;;;;;65.30;35.58;;;2.20;55.60;;;;;;5042107;28;20049;-47
2023/01/29 07:41:06;;;;;;;64.90;34.55;;;2.20;55.50;;;;;;5041388;28;20393;-46
2023/01/29 07:43:33;;;;;;;70.40;36.78;;;2.20;55.60;;;;;;5041273;28;20049;-46
2023/01/29 07:46:02;;;;;;;72.90;38.70;;;2.20;55.50;;;;;;5042328;28;20072;-47
2023/01/29 07:48:30;;;;;;;72.15;37.15;;;2.20;55.50;;;;;;5042162;28;20053;-46
2023/01/29 07:50:57;;;;;;;66.07;35.72;;;2.30;55.50;;;;;;5042253;28;20513;-48
2023/01/29 07:53:27;;;;;;;67.32;37.28;;;2.20;56.00;;;;;;5042935;28;20045;-44
2023/01/29 07:55:54;;;;;;;68.47;36.13;;;2.20;55.60;;;;;;5042597;28;20057;-48
2023/01/29 07:58:22;;;;;;;67.93;36.35;;;2.30;55.60;;;;;;5040029;28;20049;-48
2023/01/29 08:00:49;;;;;;;59.03;33.92;;;2.30;55.70;;;;;;5037996;28;20060;-45
2023/01/29 08:03:18;;;;;;;68.65;35.85;;;2.30;55.70;;;;;;5044065;28;20052;-44
2023/01/29 08:05:46;;;;;;;65.22;33.75;;;2.30;55.80;;;;;;5034891;28;20072;-47
2023/01/29 08:08:14;;;;;;;61.83;33.78;;;2.30;55.80;;;;;;5037759;28;20139;-47
2023/01/29 08:10:43;;;;;;;66.88;36.28;;;2.30;56.30;;;;;;5037234;28;20055;-46
2023/01/29 08:13:10;;;;;;;62.70;34.25;;;2.40;56.30;;;;;;5043391;28;20508;-49
2023/01/29 08:15:37;;;;;;;67.53;35.60;;;2.40;56.10;;;;;;5043041;28;20064;-47
2023/01/29 08:18:05;;;;;;;66.25;35.47;;;2.40;55.90;;;;;;5042623;28;20048;-48
2023/01/29 08:20:32;;;;;;;65.00;34.70;;;2.40;55.90;;;;;;5042690;28;20045;-47
2023/01/29 08:23:01;;;;;;;69.95;38.00;;;2.50;55.90;;;;;;5042926;28;20052;-46
2023/01/29 08:25:28;;;;;;;72.88;38.13;;;2.50;55.90;;;;;;5039990;28;20052;-46
2023/01/29 08:27:59;;;;;;;76.70;40.25;;;2.50;55.90;;;;;;5040663;28;20056;-46
2023/01/29 08:30:27;;;;;;;70.63;37.70;;;2.60;56.00;;;;;;5041763;28;20049;-45
2023/01/29 08:32:54;;;;;;;69.93;37.35;;;2.60;56.00;;;;;;5041506;28;20378;-47
2023/01/29 08:35:21;;;;;;;65.97;36.22;;;2.60;56.00;;;;;;5042480;28;20515;-43
2023/01/29 08:37:55;;;;;;;69.90;37.17;;;2.70;56.00;;;;;;5043036;28;20049;-47
2023/01/29 08:40:23;;;;;;;68.35;37.13;;;2.70;56.10;;;;;;5036229;28;20052;-47
2023/01/29 08:42:50;;;;;;;75.05;38.22;;;2.70;56.10;;;;;;5040512;28;20524;-45
2023/01/29 08:45:18;;;;;;;66.13;36.75;;;2.70;56.10;;;;;;5038888;28;20053;-48
2023/01/29 08:47:46;;;;;;;65.72;36.30;;;2.80;56.10;;;;;;5038035;28;20049;-45
2023/01/29 08:50:14;;;;;;;65.57;35.17;;;2.80;56.20;;;;;;5041459;28;20060;-47
2023/01/29 08:52:41;;;;;;;66.15;36.50;;;2.80;56.20;;;;;;5039230;28;20072;-45
2023/01/29 08:55:09;;;;;;;61.95;34.08;;;2.80;56.20;;;;;;5036590;28;20064;-44
2023/01/29 08:57:37;;;;;;;62.55;35.60;;;2.90;56.30;;;;;;5035687;28;20056;-44
2023/01/29 09:00:06;;;;;;;65.22;35.72;;;2.90;56.30;;;;;;5040594;28;20049;-47
2023/01/29 09:02:34;;;;;;;62.15;34.55;;;3.00;56.30;;;;;;5034932;28;20072;-45
2023/01/29 09:05:01;;;;;;;69.10;38.58;;;3.00;56.20;;;;;;5036914;28;20424;-44
2023/01/29 09:07:29;;;;;;;60.40;33.92;;;3.00;56.20;;;;;;5035319;28;20400;-50
2023/01/29 09:09:57;;;;;;;66.60;37.00;;;3.10;56.20;;;;;;5032998;28;20059;-48
2023/01/29 09:12:24;;;;;;;64.53;36.30;;;3.10;56.20;;;;;;5036631;28;20049;-45
2023/01/29 09:14:51;;;;;;;59.95;34.63;;;3.10;56.20;;;;;;5037477;28;20049;-49
2023/01/29 09:17:19;;;;;;;67.30;35.25;;;3.10;56.20;;;;;;5036530;28;20509;-48
2023/01/29 09:19:47;;;;;;;68.03;36.90;;;3.20;56.20;;;;;;5040266;28;20053;-47
2023/01/29 09:22:14;;;;;;;58.88;34.15;;;3.20;56.20;;;;;;5036940;28;20049;-47
2023/01/29 09:24:42;;;;;;;63.20;34.75;;;3.20;56.20;;;;;;5034482;28;20052;-48
2023/01/29 09:27:09;;;;;;;58.17;32.17;;;3.30;56.20;;;;;;5036512;28;20060;-46
2023/01/29 09:29:37;;;;;;;55.97;31.75;;;3.30;56.10;;;;;;5039143;28;20536;-46
2023/01/29 09:32:05;;;;;;;54.58;29.33;;;3.30;56.00;;;;;;5036641;28;20508;-46
2023/01/29 09:34:32;;;;;;;50.80;29.70;;;3.30;56.00;;;;;;5039179;28;20056;-50
2023/01/29 09:37:01;;;;;;;44.72;27.40;;;3.40;56.00;;;;;;5038332;28;20048;-45
2023/01/29 09:39:28;;;;;;;48.65;27.02;;;3.40;56.00;;;;;;5038254;28;20045;-46
2023/01/29 09:41:59;;;;;;;86.55;40.03;;;3.40;55.90;;;;;;5039768;28;20056;-45
2023/01/29 09:44:46;;;;;;;58.67;31.50;;;3.40;56.00;;;;;;5040475;28;20076;-45
2023/01/29 09:47:16;;;;;;;56.22;29.33;;;3.40;55.90;;;;;;5039583;28;20080;-47
2023/01/29 09:49:47;;;;;;;44.88;25.95;;;3.50;55.80;;;;;;5039228;28;20063;-45
2023/01/29 09:52:22;;;;;;;40.55;24.42;;;3.50;55.70;;;;;;5037235;28;20364;-48
2023/01/29 09:54:57;;;;;;;44.53;26.20;;;3.50;55.70;;;;;;5039932;28;20048;-46
2023/01/29 09:57:29;;;;;;;41.40;25.25;;;3.50;55.70;;;;;;5040774;28;20052;-46
2023/01/29 09:59:56;;;;;;;37.45;23.38;;;3.50;55.60;;;;;;5040595;28;20052;-48
2023/01/29 10:02:50;;;;;;;35.17;21.25;;;3.60;55.50;;;;;;5038363;28;20049;-47
2023/01/29 10:05:41;;;;;;;35.50;21.00;;;3.60;55.30;;;;;;5038855;28;20045;-48
2023/01/29 10:08:36;;;;;;;89.88;43.13;;;3.60;55.30;;;;;;5038934;28;20060;-47
2023/01/29 10:11:11;;;;;;;47.42;26.33;;;3.70;55.20;;;;;;5039449;28;20064;-49
2023/01/29 10:13:47;;;;;;;42.63;24.77;;;3.70;55.10;;;;;;5040287;28;20060;-49
2023/01/29 10:16:31;;;;;;;40.28;23.13;;;3.70;55.10;;;;;;5037969;28;20048;-45
2023/01/29 10:19:35;;;;;;;34.38;21.70;;;3.80;55.10;;;;;;5041109;28;20052;-46
2023/01/29 10:22:26;;;;;;;39.83;23.70;;;3.80;55.10;;;;;;5036131;28;20067;-50
2023/01/29 10:25:00;;;;;;;40.85;24.08;;;3.80;55.20;;;;;;5040261;28;20056;-45
2023/01/29 10:27:33;;;;;;;43.65;26.83;;;3.90;55.30;;;;;;5038130;28;21679;-48
2023/01/29 10:30:02;;;;;;;41.53;25.87;;;3.90;55.30;;;;;;5040513;28;20045;-44
2023/01/29 10:32:30;;;;;;;36.13;21.90;;;3.90;55.20;;;;;;5038788;28;20051;-46
2023/01/29 10:35:03;;;;;;;40.60;23.42;;;3.90;55.20;;;;;;5038032;28;20060;-47
2023/01/29 10:37:37;;;;;;;34.28;21.45;;;4.00;55.10;;;;;;5038445;28;20059;-47
2023/01/29 10:40:16;;;;;;;;;;;4.10;55.10;;;;;;5039387;28;20056;-49
2023/01/29 10:42:49;;;;;;;35.40;21.33;;;4.10;54.90;;;;;;5039278;28;19925;-44
2023/01/29 10:45:24;;;;;;;30.50;19.40;;;4.10;54.70;;;;;;5040521;28;20485;-49
2023/01/29 10:48:05;;;;;;;32.00;20.42;;;4.20;54.50;;;;;;5038457;28;20503;-50
2023/01/29 10:50:45;;;;;;;36.58;20.20;;;4.20;54.30;;;;;;5033045;28;20049;-43
2023/01/29 10:53:25;;;;;;;45.05;24.75;;;4.20;54.40;;;;;;5036106;28;21348;-50
2023/01/29 10:56:03;;;;;;;36.55;20.85;;;4.20;54.40;;;;;;5034281;28;20489;-44
2023/01/29 10:58:37;;;;;;;28.17;18.30;;;4.20;54.50;;;;;;5037805;28;20068;-47
2023/01/29 11:01:04;;;;;;;26.58;17.13;;;4.30;54.60;;;;;;5039399;28;20061;-44
2023/01/29 11:03:33;;;;;;;31.88;19.85;;;4.30;54.60;;;;;;5034089;28;20056;-50
2023/01/29 11:06:10;;;;;;;28.80;18.30;;;4.40;54.60;;;;;;5039051;28;20056;-49
2023/01/29 11:08:43;;;;;;;30.05;19.55;;;4.40;54.60;;;;;;5041060;28;20083;-49
2023/01/29 11:11:16;;;;;;;26.17;18.10;;;4.50;54.50;;;;;;5041127;28;20052;-48
2023/01/29 11:13:50;;;;;;;30.25;18.52;;;4.50;54.50;;;;;;5041100;28;20052;-44
2023/01/29 11:16:17;;;;;;;28.48;18.42;;;4.60;54.50;;;;;;5040556;28;20072;-47
2023/01/29 11:18:56;;;;;;;26.08;17.45;;;4.60;54.30;;;;;;5038552;28;20492;-49
2023/01/29 11:21:25;;;;;;;26.20;16.40;;;4.60;54.00;;;;;;5038327;28;20053;-46
2023/01/29 11:24:05;;;;;;;29.35;17.30;;;4.70;54.00;;;;;;5036402;28;20056;-47
2023/01/29 11:26:39;;;;;;;27.02;17.40;;;4.80;54.00;;;;;;5038745;28;20504;-45
2023/01/29 11:29:32;;;;;;;34.17;20.45;;;4.80;54.00;;;;;;5033902;28;20412;-47
2023/01/29 11:32:01;;;;;;;28.05;18.38;;;4.80;53.80;;;;;;5039203;28;20049;-44
2023/01/29 11:34:28;;;;;;;27.58;17.13;;;4.90;54.00;;;;;;5037559;28;20057;-47
2023/01/29 11:36:58;;;;;;;29.08;19.38;;;4.90;54.00;;;;;;5037953;28;20048;-48
2023/01/29 11:39:26;;;;;;;25.88;17.20;;;5.00;54.00;;;;;;5037438;28;20056;-47
2023/01/29 11:41:59;;;;;;;28.88;17.90;;;5.00;54.00;;;;;;5038798;28;20061;-48
2023/01/29 11:44:35;;;;;;;26.80;17.85;;;5.00;53.90;;;;;;5036745;28;20060;-49
2023/01/29 11:47:19;;;;;;;27.27;17.20;;;5.00;53.80;;;;;;5034741;28;20049;-47
2023/01/29 11:49:48;;;;;;;24.42;16.35;;;5.10;53.80;;;;;;5038135;28;20052;-47
2023/01/29 11:52:18;;;;;;;25.88;16.58;;;5.10;53.80;;;;;;5037668;28;20433;-47
2023/01/29 11:54:48;;;;;;;30.15;17.75;;;5.20;53.70;;;;;;5035747;28;20045;-47
2023/01/29 11:57:27;;;;;;;28.10;16.73;;;5.20;53.60;;;;;;5039597;28;20049;-49
2023/01/29 11:59:56;;;;;;;24.65;15.60;;;5.20;53.60;;;;;;5041475;28;20505;-47
2023/01/29 12:02:30;;;;;;;23.63;15.65;;;5.30;53.70;;;;;;5041843;28;20060;-47
2023/01/29 12:05:00;;;;;;;25.95;16.38;;;5.30;53.70;;;;;;5041524;28;20405;-46
2023/01/29 12:07:28;;;;;;;29.15;17.77;;;5.30;53.70;;;;;;5042171;28;20057;-48
2023/01/29 12:09:58;;;;;;;25.55;16.77;;;5.30;53.50;;;;;;5042007;28;20733;-47
2023/01/29 12:12:38;;;;;;;26.52;16.70;;;5.40;53.40;;;;;;5039123;28;20065;-48
2023/01/29 12:15:26;;;;;;;30.20;18.45;;;5.40;53.40;;;;;;5042376;28;20053;-49
2023/01/29 12:18:02;;;;;;;26.70;15.95;;;5.40;53.30;;;;;;5034771;28;20056;-50
2023/01/29 12:20:35;;;;;;;24.50;15.35;;;5.50;53.10;;;;;;5042243;28;20049;-46
2023/01/29 12:23:11;;;;;;;26.25;16.90;;;5.50;53.10;;;;;;5041120;28;20071;-49
2023/01/29 12:25:51;;;;;;;27.10;15.88;;;5.50;52.90;;;;;;5042815;28;20079;-51
2023/01/29 12:28:34;;;;;;;25.00;16.52;;;5.60;52.80;;;;;;5041244;28;20072;-50
2023/01/29 12:31:16;;;;;;;25.67;16.13;;;5.60;52.50;;;;;;5045181;28;20052;-48
2023/01/29 12:33:51;;;;;;;27.20;17.02;;;5.60;52.20;;;;;;5043240;28;20482;-49
2023/01/29 12:36:24;;;;;;;26.48;17.40;;;5.60;52.10;;;;;;5043488;28;20949;-51
2023/01/29 12:38:52;;;;;;;25.80;17.05;;;5.60;52.00;;;;;;5043452;28;20056;-47
2023/01/29 12:41:30;;;;;;;28.20;17.50;;;5.60;51.70;;;;;;5044290;28;20060;-48
2023/01/29 12:44:05;;;;;;;28.40;18.00;;;5.60;51.60;;;;;;5044181;28;20059;-49
2023/01/29 12:46:38;;;;;;;34.13;19.85;;;5.60;51.40;;;;;;5040532;28;20543;-48
2023/01/29 12:49:14;;;;;;;38.97;22.75;;;5.50;51.70;;;;;;5044651;28;20507;-46
2023/01/29 12:51:48;;;;;;;38.42;23.58;;;5.50;52.10;;;;;;5043922;28;20049;-49
2023/01/29 12:54:22;;;;;;;38.95;22.13;;;5.50;52.30;;;;;;5043162;28;20053;-48
2023/01/29 12:56:51;;;;;;;37.73;23.23;;;5.50;52.40;;;;;;5044297;28;20056;-47
2023/01/29 12:59:27;;;;;;;40.25;23.45;;;5.50;52.50;;;;;;5044311;28;20049;-52
2023/01/29 13:01:58;;;;;;;42.20;24.08;;;5.50;52.50;;;;;;5041129;28;20057;-48
2023/01/29 13:04:35;;;;;;;41.95;24.52;;;5.60;52.50;;;;;;5044205;28;20057;-50
2023/01/29 13:07:10;;;;;;;36.85;23.88;;;5.60;52.50;;;;;;5043429;28;20064;-49
2023/01/29 13:09:41;;;;;;;40.05;24.33;;;5.70;52.60;;;;;;5043186;28;20056;-49
2023/01/29 13:12:15;;;;;;;40.17;24.38;;;5.70;52.70;;;;;;5044563;28;20409;-49
2023/01/29 13:14:47;;;;;;;;;;;5.70;52.70;;;;;;5038240;28;20412;-50
2023/01/29 13:17:22;;;;;;;33.78;21.25;;;5.80;52.80;;;;;;5042316;28;19929;-46
2023/01/29 13:19:52;;;;;;;34.90;20.77;;;5.80;52.40;;;;;;5043119;28;20076;-45
2023/01/29 13:22:24;;;;;;;38.17;22.05;;;5.80;52.20;;;;;;5043393;28;20053;-47
2023/01/29 13:24:52;;;;;;;32.65;20.85;;;5.80;51.90;;;;;;5042925;28;20067;-48
2023/01/29 13:27:25;;;;;;;33.72;21.67;;;5.90;51.90;;;;;;5039855;28;20408;-48
2023/01/29 13:29:55;;;;;;;34.83;20.57;;;5.90;51.90;;;;;;5042645;28;20060;-46
2023/01/29 13:32:26;;;;;;;35.30;22.45;;;5.90;51.90;;;;;;5042928;28;20498;-50
2023/01/29 13:34:55;;;;;;;34.67;21.35;;;5.90;51.80;;;;;;5034368;28;20417;-49